createdAt,value
2017-05-17T00:01:52.502Z,17.50
2017-05-17T00:04:20.724Z,17.40
2017-05-17T00:06:49.031Z,17.50
2017-05-17T00:09:18.026Z,17.50
2017-05-17T00:11:47.001Z,17.60
2017-05-17T00:14:15.260Z,17.70
2017-05-17T00:16:43.499Z,17.80
2017-05-17T00:19:11.843Z,17.70
2017-05-17T00:21:40.850Z,17.50
2017-05-17T00:24:09.091Z,17.40
2017-05-17T00:26:37.387Z,17.40
2017-05-17T00:29:06.483Z,17.20
2017-05-17T00:31:35.470Z,17.20
2017-05-17T00:34:04.448Z,17.20
2017-05-17T00:36:44.830Z,17.30
2017-05-17T00:39:25.664Z,17.20
2017-05-17T00:42:05.845Z,17.20
2017-05-17T00:44:46.889Z,17.20
2017-05-17T00:47:27.028Z,17.30
2017-05-17T00:50:07.230Z,17.30
2017-05-17T00:52:36.210Z,17.20
2017-05-17T00:55:04.467Z,17.30
2017-05-17T00:57:32.701Z,17.30
2017-05-17T01:00:01.028Z,17.30
2017-05-17T01:02:29.334Z,17.20
2017-05-17T01:04:57.575Z,17.30
2017-05-17T01:07:25.889Z,17.30
2017-05-17T01:09:54.125Z,17.30
2017-05-17T01:12:22.439Z,17.40
2017-05-17T01:14:50.699Z,17.40
2017-05-17T01:17:19.727Z,17.30
2017-05-17T01:19:48.085Z,17.30
2017-05-17T01:22:16.323Z,17.30
2017-05-17T01:24:44.548Z,17.30
2017-05-17T01:27:12.797Z,17.30
2017-05-17T01:29:41.780Z,17.30
2017-05-17T01:32:10.891Z,17.30
2017-05-17T01:34:39.885Z,17.30
2017-05-17T01:37:08.980Z,17.20
2017-05-17T01:39:37.980Z,17.20
2017-05-17T01:42:06.220Z,17.30
2017-05-17T01:44:34.480Z,17.30
2017-05-17T01:47:02.801Z,17.20
2017-05-17T01:49:31.092Z,17.20
2017-05-17T01:51:59.361Z,17.20
2017-05-17T01:54:27.592Z,17.20
2017-05-17T01:56:55.936Z,17.20
2017-05-17T01:59:24.168Z,17.20
2017-05-17T02:01:53.165Z,17.20
2017-05-17T02:04:22.167Z,17.40
2017-05-17T02:06:50.400Z,17.40
2017-05-17T02:09:18.665Z,17.40
2017-05-17T02:11:46.892Z,17.40
2017-05-17T02:14:15.132Z,17.40
2017-05-17T02:16:43.384Z,17.40
2017-05-17T02:19:11.616Z,17.40
2017-05-17T02:21:39.884Z,17.50
2017-05-17T02:24:08.112Z,17.50
2017-05-17T02:26:36.442Z,17.50
2017-05-17T02:29:04.704Z,17.50
2017-05-17T02:31:33.688Z,17.40
2017-05-17T02:34:02.687Z,17.50
2017-05-17T02:36:31.694Z,17.50
2017-05-17T02:38:59.937Z,17.60
2017-05-17T02:41:28.177Z,17.50
2017-05-17T02:43:56.423Z,17.40
2017-05-17T02:46:24.676Z,17.30
2017-05-17T02:48:53.668Z,17.30
2017-05-17T02:51:22.631Z,17.30
2017-05-17T02:53:50.946Z,17.30
2017-05-17T02:56:19.224Z,17.20
2017-05-17T02:58:47.567Z,17.20
2017-05-17T03:01:15.800Z,17.20
2017-05-17T03:03:44.026Z,17.20
2017-05-17T03:06:13.009Z,17.10
2017-05-17T03:08:41.231Z,17.20
2017-05-17T03:11:09.622Z,17.20
2017-05-17T03:13:37.853Z,17.10
2017-05-17T03:16:06.954Z,17.10
2017-05-17T03:18:35.222Z,17.20
2017-05-17T03:21:04.232Z,17.20
2017-05-17T03:23:32.617Z,17.20
2017-05-17T03:26:00.844Z,17.20
2017-05-17T03:28:29.156Z,17.30
2017-05-17T03:30:57.411Z,17.30
2017-05-17T03:33:25.704Z,17.40
2017-05-17T03:35:54.797Z,17.30
2017-05-17T03:38:23.780Z,17.40
2017-05-17T03:40:52.880Z,17.40
2017-05-17T03:43:21.128Z,17.50
2017-05-17T03:45:49.365Z,17.50
2017-05-17T03:48:17.706Z,17.40
2017-05-17T03:50:46.680Z,17.40
2017-05-17T03:53:14.973Z,17.40
2017-05-17T03:55:43.960Z,17.30
2017-05-17T03:58:12.963Z,17.30
2017-05-17T04:00:42.071Z,17.30
2017-05-17T04:03:10.348Z,17.40
2017-05-17T04:05:38.590Z,17.40
2017-05-17T04:08:06.833Z,17.40
2017-05-17T04:10:35.065Z,17.40
2017-05-17T04:13:03.392Z,17.50
2017-05-17T04:15:31.708Z,17.40
2017-05-17T04:18:00.764Z,17.40
2017-05-17T04:20:29.020Z,17.40
2017-05-17T04:22:57.365Z,17.50
2017-05-17T04:25:25.724Z,17.50
2017-05-17T04:27:54.721Z,17.60
2017-05-17T04:30:23.880Z,17.50
2017-05-17T04:32:52.307Z,17.60
2017-05-17T04:35:20.684Z,17.70
2017-05-17T04:37:48.945Z,17.80
2017-05-17T04:40:17.952Z,17.70
2017-05-17T04:42:46.176Z,17.70
2017-05-17T04:45:14.504Z,17.80
2017-05-17T04:47:42.867Z,17.90
2017-05-17T04:50:11.970Z,17.90
2017-05-17T04:52:40.948Z,17.90
2017-05-17T04:55:09.947Z,17.90
2017-05-17T04:57:38.935Z,17.90
2017-05-17T05:00:07.909Z,18.00
2017-05-17T05:02:36.258Z,18.10
2017-05-17T05:05:04.534Z,18.10
2017-05-17T05:07:32.863Z,18.20
2017-05-17T05:10:01.852Z,18.20
2017-05-17T05:12:30.843Z,18.20
2017-05-17T05:14:59.836Z,18.20
2017-05-17T05:17:28.811Z,18.10
2017-05-17T05:19:57.045Z,18.20
2017-05-17T05:22:25.437Z,18.20
2017-05-17T05:24:53.657Z,18.20
2017-05-17T05:27:22.700Z,18.10
2017-05-17T05:29:51.028Z,18.30
2017-05-17T05:32:20.000Z,18.30
2017-05-17T05:34:48.248Z,18.30
2017-05-17T05:37:16.486Z,18.30
2017-05-17T05:39:44.876Z,18.30
2017-05-17T05:42:13.168Z,18.30
2017-05-17T05:44:41.400Z,18.30
2017-05-17T05:47:10.435Z,18.20
2017-05-17T05:49:38.666Z,18.20
2017-05-17T05:52:07.668Z,18.30
2017-05-17T05:54:35.949Z,18.30
2017-05-17T05:57:04.214Z,18.10
2017-05-17T05:59:32.464Z,18.10
2017-05-17T06:02:01.479Z,18.10
2017-05-17T06:04:30.448Z,18.20
2017-05-17T06:06:58.717Z,18.30
2017-05-17T06:09:26.992Z,18.30
2017-05-17T06:11:55.253Z,18.30
2017-05-17T06:14:23.527Z,18.40
2017-05-17T06:16:51.764Z,18.50
2017-05-17T06:19:20.018Z,18.50
2017-05-17T06:21:48.268Z,18.60
2017-05-17T06:24:16.593Z,18.60
2017-05-17T06:26:44.911Z,18.70
2017-05-17T06:29:13.259Z,18.80
2017-05-17T06:31:41.545Z,18.80
2017-05-17T06:34:09.819Z,19.00
2017-05-17T06:36:38.069Z,19.10
2017-05-17T06:39:06.528Z,19.10
2017-05-17T06:41:34.823Z,19.10
2017-05-17T06:44:03.124Z,19.20
2017-05-17T06:46:31.455Z,19.20
2017-05-17T06:49:00.438Z,19.20
2017-05-17T06:51:29.459Z,19.20
2017-05-17T06:53:57.694Z,19.10
2017-05-17T06:56:25.992Z,19.10
2017-05-17T06:58:54.982Z,19.20
2017-05-17T07:01:23.215Z,19.20
2017-05-17T07:03:52.215Z,19.30
2017-05-17T07:06:21.217Z,19.30
2017-05-17T07:08:49.506Z,19.40
2017-05-17T07:11:17.737Z,19.40
2017-05-17T07:13:46.041Z,19.40
2017-05-17T07:16:15.058Z,19.30
2017-05-17T07:18:43.301Z,19.30
2017-05-17T07:21:11.955Z,19.30
2017-05-17T07:23:40.214Z,19.20
2017-05-17T07:26:08.491Z,19.30
2017-05-17T07:28:36.732Z,19.40
2017-05-17T07:31:04.968Z,19.50
2017-05-17T07:33:33.251Z,19.50
2017-05-17T07:36:01.505Z,19.50
2017-05-17T07:38:29.740Z,19.60
2017-05-17T07:40:57.995Z,19.70
2017-05-17T07:43:26.229Z,19.60
2017-05-17T07:45:54.492Z,19.60
2017-05-17T07:48:22.713Z,19.70
2017-05-17T07:50:50.944Z,19.70
2017-05-17T07:53:19.192Z,19.80
2017-05-17T07:55:47.416Z,19.90
2017-05-17T07:58:15.681Z,20.00
2017-05-17T08:00:43.915Z,20.20
2017-05-17T08:03:12.156Z,20.40
2017-05-17T08:05:40.389Z,20.50
2017-05-17T08:08:08.628Z,20.50
2017-05-17T08:10:37.209Z,20.70
2017-05-17T08:13:05.730Z,20.80
2017-05-17T08:15:34.276Z,20.90
2017-05-17T08:18:02.734Z,20.80
2017-05-17T08:20:30.996Z,20.80
2017-05-17T08:22:59.254Z,20.90
2017-05-17T08:25:27.476Z,20.90
2017-05-17T08:27:55.708Z,20.90
2017-05-17T08:30:23.949Z,20.80
2017-05-17T08:32:52.214Z,21.00
2017-05-17T08:35:20.499Z,21.10
2017-05-17T08:37:48.733Z,21.10
2017-05-17T08:40:16.976Z,21.30
2017-05-17T08:42:45.218Z,21.40
2017-05-17T08:45:13.452Z,21.50
2017-05-17T08:47:41.708Z,21.60
2017-05-17T08:50:09.937Z,21.60
2017-05-17T08:52:38.619Z,21.80
2017-05-17T08:55:06.882Z,21.80
2017-05-17T08:57:35.105Z,22.00
2017-05-17T09:00:03.328Z,22.20
2017-05-17T09:02:31.569Z,22.40
2017-05-17T09:04:59.802Z,22.50
2017-05-17T09:07:28.066Z,22.50
2017-05-17T09:09:56.300Z,22.60
2017-05-17T09:12:24.525Z,22.60
2017-05-17T09:14:52.795Z,22.80
2017-05-17T09:17:21.023Z,23.10
2017-05-17T09:19:49.271Z,23.30
2017-05-17T09:22:17.536Z,23.50
2017-05-17T09:24:45.800Z,23.50
2017-05-17T09:27:14.037Z,23.60
2017-05-17T09:29:42.272Z,23.90
2017-05-17T09:32:10.512Z,24.00
2017-05-17T09:34:38.737Z,24.10
2017-05-17T09:37:06.997Z,24.10
2017-05-17T09:39:35.224Z,24.50
2017-05-17T09:42:03.449Z,24.70
2017-05-17T09:44:31.684Z,24.80
2017-05-17T09:46:59.925Z,25.00
2017-05-17T09:49:28.184Z,25.10
2017-05-17T09:51:56.438Z,25.00
2017-05-17T09:54:24.676Z,25.10
2017-05-17T09:56:52.912Z,25.20
2017-05-17T09:59:21.141Z,25.20
2017-05-17T10:01:48.632Z,25.10
2017-05-17T10:04:16.852Z,24.80
2017-05-17T10:06:45.085Z,24.80
2017-05-17T10:09:13.336Z,24.60
2017-05-17T10:11:41.565Z,24.70
2017-05-17T10:14:09.824Z,24.60
2017-05-17T10:16:38.052Z,24.70
2017-05-17T10:19:06.272Z,24.70
2017-05-17T10:21:34.504Z,24.80
2017-05-17T10:24:02.731Z,24.80
2017-05-17T10:26:30.988Z,24.80
2017-05-17T10:28:59.212Z,24.70
2017-05-17T10:31:27.445Z,24.80
2017-05-17T10:33:55.684Z,24.80
2017-05-17T10:36:24.615Z,24.90
2017-05-17T10:38:52.874Z,25.00
2017-05-17T10:41:21.142Z,25.20
2017-05-17T10:43:49.363Z,25.20
2017-05-17T10:46:17.624Z,25.30
2017-05-17T10:48:45.853Z,25.40
2017-05-17T10:51:14.121Z,25.40
2017-05-17T10:53:42.365Z,25.50
2017-05-17T10:56:10.593Z,25.60
2017-05-17T10:58:38.811Z,25.70
2017-05-17T11:01:07.055Z,25.70
2017-05-17T11:03:35.288Z,25.70
2017-05-17T11:06:03.512Z,25.60
2017-05-17T11:08:31.753Z,25.70
2017-05-17T11:10:59.981Z,25.70
2017-05-17T11:13:28.221Z,25.80
2017-05-17T11:15:56.447Z,25.90
2017-05-17T11:18:24.668Z,26.10
2017-05-17T11:20:52.916Z,26.20
2017-05-17T11:23:20.400Z,26.10
2017-05-17T11:25:48.632Z,26.30
2017-05-17T11:28:16.865Z,26.30
2017-05-17T11:30:45.110Z,25.00
2017-05-17T11:33:13.348Z,26.30
2017-05-17T11:35:41.613Z,26.30
2017-05-17T11:38:09.875Z,26.40
2017-05-17T11:40:38.126Z,26.40
2017-05-17T11:43:06.365Z,26.50
2017-05-17T11:45:34.595Z,26.60
2017-05-17T11:48:02.850Z,26.60
2017-05-17T11:50:31.097Z,26.70
2017-05-17T11:52:59.337Z,26.70
2017-05-17T11:55:27.576Z,26.60
2017-05-17T11:57:55.812Z,26.70
2017-05-17T12:00:24.058Z,26.90
2017-05-17T12:02:52.340Z,26.80
2017-05-17T12:05:20.737Z,26.80
2017-05-17T12:07:48.216Z,26.70
2017-05-17T12:10:16.456Z,26.90
2017-05-17T12:12:43.960Z,26.90
2017-05-17T12:15:12.184Z,27.00
2017-05-17T12:17:39.660Z,27.00
2017-05-17T12:20:07.884Z,27.00
2017-05-17T12:22:36.112Z,27.10
2017-05-17T12:25:04.356Z,27.10
2017-05-17T12:27:32.604Z,27.00
2017-05-17T12:30:00.832Z,27.10
2017-05-17T12:32:29.054Z,27.20
2017-05-17T12:34:57.288Z,27.00
2017-05-17T12:37:25.505Z,27.00
2017-05-17T12:39:55.621Z,26.90
2017-05-17T12:42:23.849Z,26.90
2017-05-17T12:44:52.084Z,26.70
2017-05-17T12:47:20.320Z,26.60
2017-05-17T12:49:48.552Z,26.60
2017-05-17T12:52:16.777Z,26.70
2017-05-17T12:54:45.031Z,26.80
2017-05-17T12:57:13.259Z,26.80
2017-05-17T12:59:41.489Z,26.90
2017-05-17T13:02:09.744Z,27.00
2017-05-17T13:04:37.972Z,26.80
2017-05-17T13:07:06.196Z,26.70
2017-05-17T13:09:34.423Z,26.70
2017-05-17T13:12:02.648Z,26.80
2017-05-17T13:14:30.888Z,27.10
2017-05-17T13:16:59.145Z,27.10
2017-05-17T13:19:27.413Z,27.10
2017-05-17T13:21:55.643Z,27.10
2017-05-17T13:24:23.872Z,27.10
2017-05-17T13:26:52.120Z,27.20
2017-05-17T13:29:20.344Z,27.20
2017-05-17T13:31:48.563Z,27.40
2017-05-17T13:34:16.801Z,27.40
2017-05-17T13:36:45.048Z,28.50
2017-05-17T13:39:13.275Z,27.20
2017-05-17T13:41:41.520Z,27.30
2017-05-17T13:44:09.013Z,27.30
2017-05-17T13:46:37.232Z,27.60
2017-05-17T13:49:05.493Z,27.70
2017-05-17T13:51:33.720Z,27.80
2017-05-17T13:54:01.953Z,28.00
2017-05-17T13:56:30.213Z,27.90
2017-05-17T13:58:58.469Z,28.00
2017-05-17T14:01:27.010Z,28.10
2017-05-17T14:03:55.271Z,28.00
2017-05-17T14:06:23.513Z,28.00
2017-05-17T14:08:51.740Z,27.90
2017-05-17T14:11:19.989Z,28.00
2017-05-17T14:13:48.224Z,28.20
2017-05-17T14:16:16.458Z,28.20
2017-05-17T14:18:45.329Z,28.10
2017-05-17T14:21:13.612Z,28.00
2017-05-17T14:23:41.841Z,28.10
2017-05-17T14:26:10.151Z,28.20
2017-05-17T14:28:38.377Z,28.40
2017-05-17T14:31:06.604Z,28.40
2017-05-17T14:33:34.844Z,28.50
2017-05-17T14:36:03.073Z,28.70
2017-05-17T14:38:31.292Z,28.80
2017-05-17T14:40:59.560Z,28.90
2017-05-17T14:43:27.789Z,28.60
2017-05-17T14:45:56.013Z,28.70
2017-05-17T14:48:24.260Z,28.70
2017-05-17T14:50:52.485Z,28.80
2017-05-17T14:53:20.732Z,28.70
2017-05-17T14:55:48.976Z,28.90
2017-05-17T14:58:17.202Z,29.00
2017-05-17T15:00:45.433Z,29.30
2017-05-17T15:03:13.679Z,29.40
2017-05-17T15:05:41.891Z,29.40
2017-05-17T15:08:10.113Z,29.50
2017-05-17T15:10:38.379Z,29.80
2017-05-17T15:13:06.597Z,30.10
2017-05-17T15:15:34.819Z,30.70
2017-05-17T15:18:03.068Z,31.70
2017-05-17T15:20:31.292Z,32.90
2017-05-17T15:22:59.521Z,33.30
2017-05-17T15:25:27.785Z,33.60
2017-05-17T15:27:56.020Z,32.80
2017-05-17T15:30:24.252Z,32.90
2017-05-17T15:32:52.516Z,33.30
2017-05-17T15:35:20.747Z,33.30
2017-05-17T15:37:48.991Z,33.50
2017-05-17T15:40:17.244Z,33.80
2017-05-17T15:42:45.464Z,33.90
2017-05-17T15:45:13.729Z,34.10
2017-05-17T15:47:41.999Z,34.90
2017-05-17T15:50:10.981Z,35.10
2017-05-17T15:52:39.217Z,35.20
2017-05-17T15:55:07.475Z,34.90
2017-05-17T15:57:35.723Z,35.10
2017-05-17T16:00:03.962Z,35.70
2017-05-17T16:02:32.237Z,35.80
2017-05-17T16:05:00.492Z,35.90
2017-05-17T16:07:28.737Z,36.90
2017-05-17T16:09:56.993Z,37.10
2017-05-17T16:12:25.228Z,37.30
2017-05-17T16:14:53.454Z,37.10
2017-05-17T16:17:21.702Z,36.40
2017-05-17T16:19:49.916Z,36.10
2017-05-17T16:22:18.175Z,35.50
2017-05-17T16:24:46.397Z,36.10
2017-05-17T16:27:14.623Z,35.90
2017-05-17T16:29:42.892Z,36.40
2017-05-17T16:32:11.125Z,37.10
2017-05-17T16:34:39.369Z,37.20
2017-05-17T16:37:07.596Z,36.70
2017-05-17T16:39:35.822Z,36.40
2017-05-17T16:42:04.951Z,36.50
2017-05-17T16:44:33.185Z,36.70
2017-05-17T16:47:01.432Z,36.80
2017-05-17T16:49:30.156Z,36.90
2017-05-17T16:51:58.381Z,37.10
2017-05-17T16:54:26.672Z,36.70
2017-05-17T16:56:54.901Z,35.90
2017-05-17T16:59:23.161Z,35.10
2017-05-17T17:01:51.379Z,34.20
2017-05-17T17:04:19.609Z,33.90
2017-05-17T17:06:47.877Z,33.70
2017-05-17T17:09:16.151Z,33.90
2017-05-17T17:11:44.403Z,34.30
2017-05-17T17:14:12.638Z,34.40
2017-05-17T17:16:40.864Z,34.50
2017-05-17T17:19:09.103Z,34.60
2017-05-17T17:21:37.331Z,35.00
2017-05-17T17:24:05.608Z,34.90
2017-05-17T17:26:34.390Z,34.60
2017-05-17T17:29:02.620Z,34.60
2017-05-17T17:31:30.877Z,34.70
2017-05-17T17:33:59.112Z,34.30
2017-05-17T17:36:27.386Z,34.10
2017-05-17T17:38:55.608Z,33.80
2017-05-17T17:41:24.106Z,33.30
2017-05-17T17:43:52.405Z,33.00
2017-05-17T17:46:20.680Z,32.30
2017-05-17T17:48:48.927Z,31.70
2017-05-17T17:51:17.192Z,31.00
2017-05-17T17:53:45.420Z,30.50
2017-05-17T17:56:13.716Z,30.10
2017-05-17T17:58:41.957Z,29.70
2017-05-17T18:01:10.191Z,29.40
2017-05-17T18:03:38.413Z,29.10
2017-05-17T18:06:06.633Z,28.90
2017-05-17T18:08:34.886Z,28.60
2017-05-17T18:11:03.099Z,28.40
2017-05-17T18:13:31.329Z,28.40
2017-05-17T18:15:59.584Z,28.00
2017-05-17T18:18:27.856Z,27.70
2017-05-17T18:20:56.110Z,27.50
2017-05-17T18:23:24.333Z,27.50
2017-05-17T18:25:52.589Z,27.30
2017-05-17T18:28:20.815Z,27.20
2017-05-17T18:30:49.048Z,27.00
2017-05-17T18:33:17.283Z,26.90
2017-05-17T18:35:45.516Z,26.80
2017-05-17T18:38:13.766Z,26.70
2017-05-17T18:40:41.993Z,26.60
2017-05-17T18:43:10.263Z,26.40
2017-05-17T18:45:38.503Z,26.30
2017-05-17T18:48:06.773Z,26.20
2017-05-17T18:50:35.044Z,26.00
2017-05-17T18:53:03.288Z,26.00
2017-05-17T18:55:31.522Z,26.00
2017-05-17T18:57:59.766Z,25.90
2017-05-17T19:00:28.001Z,25.80
2017-05-17T19:02:56.272Z,25.60
2017-05-17T19:05:24.529Z,25.50
2017-05-17T19:07:52.748Z,25.30
2017-05-17T19:10:20.974Z,25.20
2017-05-17T19:12:49.217Z,25.10
2017-05-17T19:15:17.450Z,25.10
2017-05-17T19:17:45.683Z,25.00
2017-05-17T19:20:13.957Z,24.80
2017-05-17T19:22:42.192Z,24.80
2017-05-17T19:25:10.415Z,24.60
2017-05-17T19:27:38.682Z,24.50
2017-05-17T19:30:06.912Z,24.40
2017-05-17T19:32:35.179Z,24.30
2017-05-17T19:35:03.471Z,24.20
2017-05-17T19:37:31.700Z,24.20
2017-05-17T19:39:59.953Z,24.10
2017-05-17T19:42:28.242Z,24.10
2017-05-17T19:44:56.473Z,24.00
2017-05-17T19:47:24.708Z,24.00
2017-05-17T19:49:52.978Z,23.90
2017-05-17T19:52:21.217Z,23.90
2017-05-17T19:54:49.457Z,24.00
2017-05-17T19:57:17.729Z,23.90
2017-05-17T19:59:45.960Z,23.80
2017-05-17T20:02:14.188Z,23.60
2017-05-17T20:04:42.559Z,23.60
2017-05-17T20:07:10.818Z,23.50
2017-05-17T20:09:39.453Z,23.40
2017-05-17T20:12:07.941Z,23.40
2017-05-17T20:14:36.173Z,23.30
2017-05-17T20:17:04.463Z,23.30
2017-05-17T20:19:32.794Z,23.20
2017-05-17T20:22:01.110Z,23.10
2017-05-17T20:24:29.352Z,23.00
2017-05-17T20:26:57.608Z,22.90
2017-05-17T20:29:25.845Z,22.80
2017-05-17T20:31:54.085Z,22.80
2017-05-17T20:34:22.383Z,22.80
2017-05-17T20:36:50.644Z,22.80
2017-05-17T20:39:18.931Z,22.70
2017-05-17T20:41:47.154Z,22.70
2017-05-17T20:44:15.457Z,22.70
2017-05-17T20:46:43.700Z,22.60
2017-05-17T20:49:11.923Z,22.60
2017-05-17T20:51:40.170Z,22.50
2017-05-17T20:54:08.458Z,22.50
2017-05-17T20:56:36.689Z,22.50
2017-05-17T20:59:04.908Z,22.40
2017-05-17T21:01:33.192Z,22.40
2017-05-17T21:04:01.412Z,22.40
2017-05-17T21:06:29.636Z,22.40
2017-05-17T21:08:57.946Z,22.40
2017-05-17T21:11:26.172Z,22.40
2017-05-17T21:13:55.085Z,22.40
2017-05-17T21:16:23.440Z,22.40
2017-05-17T21:18:51.702Z,22.30
2017-05-17T21:21:19.953Z,22.30
2017-05-17T21:23:48.224Z,22.30
2017-05-17T21:26:16.472Z,22.30
2017-05-17T21:28:44.707Z,22.30
2017-05-17T21:31:12.975Z,22.20
2017-05-17T21:33:41.242Z,22.10
2017-05-17T21:36:09.541Z,22.10
2017-05-17T21:38:37.797Z,22.00
2017-05-17T21:41:06.039Z,22.00
2017-05-17T21:43:34.272Z,22.00
2017-05-17T21:46:02.528Z,21.90
2017-05-17T21:48:30.752Z,21.90
2017-05-17T21:50:58.995Z,21.80
2017-05-17T21:53:27.250Z,21.80
2017-05-17T21:55:55.472Z,21.70
2017-05-17T21:58:23.725Z,21.70
2017-05-17T22:00:51.984Z,21.70
2017-05-17T22:03:20.215Z,21.70
2017-05-17T22:05:48.486Z,21.60
2017-05-17T22:08:16.746Z,21.60
2017-05-17T22:10:44.984Z,21.50
2017-05-17T22:13:13.229Z,21.50
2017-05-17T22:15:41.484Z,21.50
2017-05-17T22:18:10.066Z,21.40
2017-05-17T22:20:38.348Z,21.40
2017-05-17T22:23:06.608Z,21.40
2017-05-17T22:25:34.857Z,21.40
2017-05-17T22:28:03.089Z,21.40
2017-05-17T22:30:31.352Z,21.40
2017-05-17T22:32:59.585Z,21.30
2017-05-17T22:35:27.824Z,21.30
2017-05-17T22:37:56.085Z,21.20
2017-05-17T22:40:24.334Z,21.20
2017-05-17T22:42:52.569Z,21.20
2017-05-17T22:45:20.817Z,21.20
2017-05-17T22:47:49.063Z,21.20
2017-05-17T22:50:17.299Z,21.20
2017-05-17T22:52:44.805Z,21.20
2017-05-17T22:55:13.061Z,21.20
2017-05-17T22:57:41.287Z,21.10
2017-05-17T23:00:09.548Z,21.10
2017-05-17T23:02:38.201Z,21.10
2017-05-17T23:05:06.444Z,21.10
2017-05-17T23:07:34.709Z,21.10
2017-05-17T23:10:02.932Z,21.00
2017-05-17T23:12:31.172Z,21.00
2017-05-17T23:14:59.412Z,21.00
2017-05-17T23:17:27.641Z,21.00
2017-05-17T23:19:55.873Z,21.00
2017-05-17T23:22:24.112Z,20.90
2017-05-17T23:24:51.576Z,20.90
2017-05-17T23:27:19.033Z,20.80
2017-05-17T23:29:47.312Z,20.70
2017-05-17T23:32:15.559Z,20.60
2017-05-17T23:37:34.075Z,20.60
2017-05-17T23:40:02.284Z,20.60
2017-05-17T23:42:30.482Z,20.60
2017-05-17T23:44:58.705Z,20.50
2017-05-17T23:47:26.135Z,20.50
2017-05-17T23:49:54.339Z,20.40
2017-05-17T23:52:22.561Z,20.40
2017-05-17T23:54:50.753Z,20.40
2017-05-17T23:57:18.959Z,20.30
2017-05-17T23:59:47.183Z,20.30
